Time;durP1;ratioP1;P1;durP2;ratioP2;P2;SDS_P1;SDS_P2;PMS_P1;PMS_P2;Temp;Humidity;BMP_temperature;BMP_pressure;BME280_temperature;BME280_humidity;BME280_pressure;Samples;Min_cycle;Max_cycle;Signal;HPM_P1;HPM_P2
2023/07/21 00:00:40;;;;;;;45.33;31.53;;;24.50;53.80;;;;;;5087059;28;20468;-77
2023/07/21 00:03:08;;;;;;;45.90;30.60;;;24.40;54.10;;;;;;5091856;28;20449;-77
2023/07/21 00:05:38;;;;;;;49.50;34.37;;;24.40;54.00;;;;;;5092142;28;20457;-77
2023/07/21 00:08:07;;;;;;;54.23;35.90;;;24.40;53.90;;;;;;5081798;28;20430;-77
2023/07/21 00:10:35;;;;;;;57.73;39.83;;;24.40;54.10;;;;;;5072131;28;20448;-76
2023/07/21 00:13:03;;;;;;;52.43;36.10;;;24.40;54.00;;;;;;5080550;28;20468;-76
2023/07/21 00:15:32;;;;;;;76.93;51.77;;;24.40;53.90;;;;;;5087235;28;20507;-76
2023/07/21 00:18:00;;;;;;;49.50;34.90;;;24.40;54.20;;;;;;5092095;28;20439;-76
2023/07/21 00:20:29;;;;;;;48.37;33.70;;;24.40;53.70;;;;;;5091604;28;20521;-76
2023/07/21 00:22:58;;;;;;;49.43;30.90;;;24.30;54.60;;;;;;5091884;28;20419;-76
2023/07/21 00:25:26;;;;;;;43.63;30.50;;;24.30;54.10;;;;;;5088413;28;20565;-76
2023/07/21 00:27:54;;;;;;;46.73;31.40;;;24.30;53.90;;;;;;5078966;28;20487;-77
2023/07/21 00:30:23;;;;;;;53.33;34.07;;;24.30;54.20;;;;;;5079975;28;20493;-76
2023/07/21 00:32:51;;;;;;;55.10;37.43;;;24.30;54.00;;;;;;5089512;28;20460;-76
2023/07/21 00:35:19;;;;;;;38.73;27.60;;;24.30;54.00;;;;;;5071777;28;20467;-76
2023/07/21 00:37:47;;;;;;;32.90;23.00;;;24.30;54.00;;;;;;5070831;28;20484;-76
2023/07/21 00:40:18;;;;;;;31.53;22.07;;;24.10;53.80;;;;;;5073660;28;20499;-76
2023/07/21 00:42:47;;;;;;;43.63;29.83;;;24.10;54.00;;;;;;5091565;28;20419;-76
2023/07/21 00:45:15;;;;;;;24.43;16.70;;;24.20;54.10;;;;;;5080317;28;20456;-76
2023/07/21 00:47:43;;;;;;;34.27;22.63;;;24.10;53.90;;;;;;5083795;28;20785;-76
2023/07/21 00:50:11;;;;;;;27.40;20.37;;;24.00;54.50;;;;;;5077836;28;20473;-76
2023/07/21 00:52:39;;;;;;;29.00;18.77;;;24.00;54.30;;;;;;5071109;28;20412;-76
2023/07/21 00:55:08;;;;;;;28.70;19.80;;;24.00;54.10;;;;;;5070885;28;20540;-76
2023/07/21 00:57:37;;;;;;;28.63;18.60;;;24.10;54.20;;;;;;5071196;28;20417;-75
2023/07/21 01:00:11;;;;;;;21.30;15.73;;;24.10;53.70;;;;;;5088186;28;20411;-76
2023/07/21 01:02:38;;;;;;;17.67;12.40;;;24.10;53.80;;;;;;5091160;28;20444;-76
2023/07/21 01:05:07;;;;;;;16.40;12.80;;;24.10;53.70;;;;;;5073249;28;20450;-76
2023/07/21 01:07:35;;;;;;;16.60;11.70;;;24.20;53.70;;;;;;5074192;28;20481;-76
2023/07/21 01:10:04;;;;;;;18.23;12.50;;;24.10;53.90;;;;;;5070863;28;20465;-77
2023/07/21 01:12:32;;;;;;;15.03;11.83;;;24.20;53.90;;;;;;5070346;28;20437;-74
2023/07/21 01:15:02;;;;;;;11.90;9.40;;;24.10;53.80;;;;;;5070536;28;20519;-76
2023/07/21 01:17:30;;;;;;;12.83;9.40;;;24.00;54.10;;;;;;5071111;28;20419;-76
2023/07/21 01:19:58;;;;;;;16.60;11.27;;;24.10;54.20;;;;;;5070871;28;20433;-76
2023/07/21 01:22:30;;;;;;;13.53;9.90;;;24.10;54.20;;;;;;5071361;28;20615;-77
2023/07/21 01:25:07;;;;;;;12.13;8.50;;;24.10;54.00;;;;;;5083077;28;20534;-76
2023/07/21 01:27:39;;;;;;;8.97;7.23;;;24.10;53.90;;;;;;5078357;28;20428;-76
2023/07/21 01:30:09;;;;;;;8.97;6.50;;;24.10;54.20;;;;;;5087405;28;20524;-76
2023/07/21 01:32:37;;;;;;;10.73;7.30;;;24.10;54.20;;;;;;5081452;28;20464;-77
2023/07/21 01:35:09;;;;;;;8.33;6.70;;;24.00;54.00;;;;;;5081947;28;20487;-76
2023/07/21 01:37:37;;;;;;;8.17;6.53;;;24.00;53.90;;;;;;5070403;28;20446;-77
2023/07/21 01:40:09;;;;;;;7.90;6.13;;;24.10;54.00;;;;;;5071413;28;20998;-76
2023/07/21 01:42:37;;;;;;;7.13;6.03;;;24.10;54.10;;;;;;5077370;28;20473;-76
2023/07/21 01:45:07;;;;;;;6.40;5.07;;;24.10;54.20;;;;;;5078755;28;20463;-76
2023/07/21 01:47:35;;;;;;;5.27;4.83;;;24.10;54.10;;;;;;5070837;28;20539;-76
2023/07/21 01:50:06;;;;;;;7.13;4.97;;;24.10;54.10;;;;;;5073434;28;20416;-77
2023/07/21 01:52:34;;;;;;;5.27;4.77;;;24.20;54.20;;;;;;5074956;28;20438;-76
2023/07/21 01:55:06;;;;;;;5.00;4.47;;;24.20;54.00;;;;;;5091106;28;20494;-75
2023/07/21 01:57:39;;;;;;;8.33;5.43;;;24.40;53.70;;;;;;5080422;28;20453;-76
2023/07/21 02:00:10;;;;;;;6.33;4.70;;;24.40;53.60;;;;;;5086101;28;20465;-76
2023/07/21 02:02:38;;;;;;;5.17;4.00;;;24.30;53.80;;;;;;5087687;28;20435;-76
2023/07/21 02:05:07;;;;;;;5.50;4.20;;;24.20;53.80;;;;;;5094425;28;20438;-77
2023/07/21 02:07:36;;;;;;;5.03;4.23;;;24.10;53.80;;;;;;5090280;28;20404;-76
2023/07/21 02:10:05;;;;;;;12.20;4.20;;;24.10;54.10;;;;;;5090605;28;20957;-76
2023/07/21 02:12:33;;;;;;;8.03;3.43;;;24.00;54.00;;;;;;5094285;28;20523;-76
2023/07/21 02:15:02;;;;;;;3.90;3.60;;;24.10;54.20;;;;;;5081069;28;20476;-76
2023/07/21 02:17:30;;;;;;;5.40;4.20;;;24.10;54.90;;;;;;5082699;28;20499;-76
2023/07/21 02:19:58;;;;;;;4.50;4.10;;;24.10;54.50;;;;;;5080972;28;20519;-76
2023/07/21 02:22:26;;;;;;;3.17;2.93;;;24.00;54.40;;;;;;5093175;28;20520;-76
2023/07/21 02:24:54;;;;;;;3.67;3.37;;;24.00;54.60;;;;;;5080365;28;20544;-77
2023/07/21 02:27:22;;;;;;;3.50;3.20;;;24.00;54.30;;;;;;5093288;28;20857;-75
2023/07/21 02:29:49;;;;;;;3.67;3.33;;;24.10;54.60;;;;;;5088219;28;20509;-76
2023/07/21 02:32:18;;;;;;;3.93;3.40;;;24.10;54.30;;;;;;5085570;28;20486;-76
2023/07/21 02:34:47;;;;;;;4.50;4.10;;;24.00;54.20;;;;;;5073569;28;20512;-76
2023/07/21 02:37:15;;;;;;;4.20;3.70;;;23.90;54.60;;;;;;5075353;28;20467;-75
2023/07/21 02:39:43;;;;;;;3.47;3.20;;;23.90;54.80;;;;;;5080794;28;20510;-76
2023/07/21 02:42:11;;;;;;;3.47;3.17;;;23.90;54.70;;;;;;5073397;28;20593;-75
2023/07/21 02:44:39;;;;;;;3.93;3.30;;;23.90;54.80;;;;;;5086150;28;20547;-76
2023/07/21 02:47:07;;;;;;;3.17;2.87;;;23.80;54.90;;;;;;5081192;28;20480;-75
2023/07/21 02:49:37;;;;;;;4.43;3.20;;;23.80;54.90;;;;;;5087167;28;20422;-75
2023/07/21 02:52:05;;;;;;;3.17;2.97;;;23.80;54.60;;;;;;5093481;28;20564;-75
2023/07/21 02:54:33;;;;;;;3.27;3.07;;;23.80;55.00;;;;;;5093913;28;20436;-75
2023/07/21 02:57:01;;;;;;;3.83;3.03;;;23.80;54.80;;;;;;5086452;28;20544;-75
2023/07/21 02:59:29;;;;;;;3.70;3.40;;;23.80;54.30;;;;;;5075485;28;20412;-75
2023/07/21 03:01:57;;;;;;;2.93;2.73;;;23.80;54.20;;;;;;5092198;28;20537;-75
2023/07/21 03:04:25;;;;;;;3.37;3.03;;;23.80;54.40;;;;;;5086283;28;20475;-75
2023/07/21 03:06:55;;;;;;;4.77;3.13;;;23.70;54.50;;;;;;5078183;28;20478;-75
2023/07/21 03:09:23;;;;;;;3.87;3.33;;;23.70;54.50;;;;;;5089828;28;20432;-75
2023/07/21 03:11:52;;;;;;;3.40;2.93;;;23.70;54.30;;;;;;5073179;28;20452;-75
2023/07/21 03:14:20;;;;;;;3.90;3.27;;;23.60;54.60;;;;;;5090055;28;20991;-75
2023/07/21 03:16:48;;;;;;;4.40;3.50;;;23.50;54.70;;;;;;5079947;28;20465;-75
2023/07/21 03:19:16;;;;;;;3.77;3.47;;;23.50;54.70;;;;;;5072659;28;20438;-74
2023/07/21 03:21:43;;;;;;;3.80;3.20;;;23.50;54.80;;;;;;5080640;28;20500;-74
2023/07/21 03:24:14;;;;;;;3.93;3.60;;;23.60;54.60;;;;;;5090206;28;20460;-75
2023/07/21 03:26:42;;;;;;;13.00;7.97;;;23.50;54.60;;;;;;5072585;28;20444;-75
2023/07/21 03:29:10;;;;;;;6.57;5.90;;;23.50;55.20;;;;;;5072831;28;20420;-74
2023/07/21 03:31:38;;;;;;;8.33;5.90;;;23.50;55.10;;;;;;5072525;28;20544;-74
2023/07/21 03:34:06;;;;;;;5.77;5.10;;;23.60;54.80;;;;;;5072391;28;20438;-74
2023/07/21 03:36:35;;;;;;;5.30;4.80;;;23.50;54.80;;;;;;5072451;28;20503;-74
2023/07/21 03:39:03;;;;;;;6.00;4.43;;;23.50;54.60;;;;;;5078982;28;20474;-73
2023/07/21 03:41:32;;;;;;;7.20;4.43;;;23.50;54.70;;;;;;5080291;28;20420;-75
2023/07/21 03:44:00;;;;;;;3.90;3.50;;;23.50;54.50;;;;;;5072105;28;20497;-75
2023/07/21 03:46:28;;;;;;;4.60;4.10;;;23.50;54.80;;;;;;5088780;28;20447;-74
2023/07/21 03:48:57;;;;;;;4.53;4.13;;;23.50;54.40;;;;;;5072174;28;20446;-74
2023/07/21 03:51:24;;;;;;;5.50;4.30;;;23.40;54.50;;;;;;5072110;28;20465;-75
2023/07/21 03:53:53;;;;;;;5.40;4.00;;;23.40;54.40;;;;;;5074873;28;20498;-76
2023/07/21 03:56:21;;;;;;;7.90;4.67;;;23.40;54.40;;;;;;5076110;28;20463;-74
2023/07/21 03:58:53;;;;;;;6.27;4.10;;;23.40;55.10;;;;;;5071543;28;20857;-74
2023/07/21 04:01:21;;;;;;;6.83;4.03;;;23.40;54.70;;;;;;5072727;28;20496;-74
2023/07/21 04:03:49;;;;;;;3.30;3.10;;;23.50;54.60;;;;;;5087448;28;20468;-74
2023/07/21 04:06:20;;;;;;;4.40;3.50;;;23.40;54.50;;;;;;5071515;28;20469;-74
2023/07/21 04:08:49;;;;;;;12.27;4.10;;;23.40;54.70;;;;;;5072019;28;20859;-75
2023/07/21 04:11:17;;;;;;;4.30;3.90;;;23.40;54.50;;;;;;5076432;28;20452;-74
2023/07/21 04:13:45;;;;;;;5.07;3.93;;;23.50;54.50;;;;;;5083774;28;20528;-75
2023/07/21 04:16:14;;;;;;;4.70;3.67;;;23.50;53.80;;;;;;5092017;28;20564;-74
2023/07/21 04:18:42;;;;;;;20.90;13.47;;;23.50;54.60;;;;;;5071580;28;20408;-74
2023/07/21 04:21:10;;;;;;;7.80;5.70;;;23.70;54.20;;;;;;5072067;28;20469;-74
2023/07/21 04:23:39;;;;;;;5.17;4.67;;;23.50;53.70;;;;;;5071554;28;20460;-74
2023/07/21 04:26:11;;;;;;;6.77;4.73;;;23.40;54.30;;;;;;5078079;28;21026;-74
2023/07/21 04:28:40;;;;;;;5.03;4.40;;;23.50;54.80;;;;;;5074963;28;20462;-75
2023/07/21 04:31:07;;;;;;;4.60;4.10;;;23.80;54.50;;;;;;5090745;28;20432;-75
2023/07/21 04:33:37;;;;;;;4.23;3.83;;;23.80;53.70;;;;;;5080911;28;20451;-74
2023/07/21 04:36:06;;;;;;;5.33;4.13;;;23.80;53.80;;;;;;5066242;28;20462;-75
2023/07/21 04:38:34;;;;;;;4.80;4.03;;;23.80;54.20;;;;;;5089744;28;20404;-75
2023/07/21 04:41:03;;;;;;;5.07;3.30;;;23.50;53.40;;;;;;5091566;28;20514;-75
2023/07/21 04:43:31;;;;;;;3.70;3.40;;;23.70;54.90;;;;;;5091006;28;20458;-75
2023/07/21 04:45:59;;;;;;;4.63;3.40;;;23.70;54.10;;;;;;5089641;28;20559;-75
2023/07/21 04:48:27;;;;;;;3.93;3.63;;;23.70;54.40;;;;;;5090705;28;20633;-75
2023/07/21 04:50:57;;;;;;;5.43;3.53;;;23.50;53.80;;;;;;5091200;28;20479;-75
2023/07/21 04:53:25;;;;;;;5.70;4.43;;;23.40;54.60;;;;;;5091048;28;20475;-74
2023/07/21 04:55:55;;;;;;;7.67;4.30;;;23.00;54.40;;;;;;5091033;28;20460;-75
2023/07/21 04:58:24;;;;;;;5.33;3.90;;;22.90;55.20;;;;;;5091154;28;20460;-75
2023/07/21 05:00:51;;;;;;;4.17;3.77;;;23.00;55.70;;;;;;5088663;28;20483;-75
2023/07/21 05:03:19;;;;;;;4.90;4.07;;;23.00;55.90;;;;;;5088761;28;20928;-75
2023/07/21 05:05:48;;;;;;;7.20;4.37;;;23.00;55.40;;;;;;5075133;28;20518;-75
2023/07/21 05:08:17;;;;;;;7.30;5.17;;;23.00;55.80;;;;;;5086106;28;20420;-74
2023/07/21 05:10:46;;;;;;;5.17;4.50;;;23.30;56.00;;;;;;5071258;28;20536;-74
2023/07/21 05:13:13;;;;;;;11.07;8.10;;;23.30;55.00;;;;;;5076266;28;20447;-74
2023/07/21 05:15:43;;;;;;;14.00;10.67;;;23.30;56.30;;;;;;5088530;28;20468;-75
2023/07/21 05:18:11;;;;;;;5.97;5.00;;;23.50;55.60;;;;;;5070750;28;20480;-75
2023/07/21 05:20:42;;;;;;;7.63;4.97;;;23.70;54.90;;;;;;5072192;28;20450;-74
2023/07/21 05:23:11;;;;;;;9.07;5.67;;;23.70;55.10;;;;;;5074703;28;20463;-75
2023/07/21 05:25:40;;;;;;;9.47;6.63;;;23.70;55.50;;;;;;5070599;28;20465;-75
2023/07/21 05:28:09;;;;;;;17.10;11.63;;;23.80;54.70;;;;;;5078194;28;20503;-75
2023/07/21 05:30:37;;;;;;;12.77;9.47;;;23.80;55.30;;;;;;5072115;28;20473;-75
2023/07/21 05:33:05;;;;;;;15.63;10.33;;;24.00;55.30;;;;;;5076519;28;20466;-75
2023/07/21 05:35:33;;;;;;;11.53;7.90;;;24.10;55.00;;;;;;5077787;28;20478;-75
2023/07/21 05:38:01;;;;;;;13.63;8.10;;;24.20;54.60;;;;;;5065530;28;20503;-75
2023/07/21 05:40:28;;;;;;;7.60;5.90;;;24.20;54.40;;;;;;5087714;28;20894;-75
2023/07/21 05:42:58;;;;;;;9.03;6.37;;;24.30;54.40;;;;;;5086457;28;20496;-76
2023/07/21 05:45:26;;;;;;;22.30;12.83;;;24.20;55.00;;;;;;5086642;28;20547;-74
2023/07/21 05:47:55;;;;;;;21.23;14.07;;;24.20;54.90;;;;;;5082410;28;20420;-75
2023/07/21 05:50:23;;;;;;;13.77;9.30;;;24.20;54.90;;;;;;5090214;28;20441;-74
2023/07/21 05:52:52;;;;;;;15.07;8.87;;;24.20;54.10;;;;;;5070393;28;20500;-75
2023/07/21 05:55:19;;;;;;;11.03;7.03;;;24.20;54.30;;;;;;5070511;28;20634;-75
2023/07/21 05:57:47;;;;;;;8.47;7.00;;;24.00;54.90;;;;;;5076722;28;20490;-75
2023/07/21 06:00:16;;;;;;;7.40;5.33;;;24.20;55.80;;;;;;5084013;28;20487;-74
2023/07/21 06:02:44;;;;;;;8.67;5.80;;;24.40;54.50;;;;;;5070102;28;20511;-75
2023/07/21 06:05:13;;;;;;;5.20;4.70;;;24.30;54.30;;;;;;5075653;28;20456;-75
2023/07/21 06:07:44;;;;;;;4.87;4.40;;;24.30;55.20;;;;;;5072021;28;20492;-74
2023/07/21 06:10:12;;;;;;;6.23;4.00;;;24.60;54.60;;;;;;5069875;28;20469;-75
2023/07/21 06:12:40;;;;;;;4.00;3.50;;;24.60;54.00;;;;;;5069976;28;20501;-75
2023/07/21 06:15:09;;;;;;;4.77;4.37;;;24.80;54.40;;;;;;5078988;28;20559;-75
2023/07/21 06:17:38;;;;;;;5.80;4.43;;;24.90;53.90;;;;;;5081688;28;20479;-75
2023/07/21 06:20:09;;;;;;;5.17;4.00;;;24.70;54.30;;;;;;5090960;28;20459;-74
2023/07/21 06:22:37;;;;;;;5.80;3.90;;;24.70;54.00;;;;;;5091655;28;20429;-75
2023/07/21 06:25:05;;;;;;;4.53;4.00;;;24.80;54.40;;;;;;5089651;28;20449;-75
2023/07/21 06:27:35;;;;;;;4.67;4.20;;;24.90;54.20;;;;;;5089778;28;20440;-75
2023/07/21 06:30:03;;;;;;;7.60;4.07;;;24.80;54.40;;;;;;5071721;28;20836;-75
2023/07/21 06:32:31;;;;;;;3.47;3.17;;;24.90;53.70;;;;;;5073164;28;20428;-75
2023/07/21 06:35:00;;;;;;;18.37;10.53;;;25.00;54.20;;;;;;5082224;28;20455;-75
2023/07/21 06:37:29;;;;;;;7.10;5.70;;;25.20;53.10;;;;;;5088957;28;20961;-75
2023/07/21 06:39:57;;;;;;;5.30;4.80;;;25.10;53.20;;;;;;5077544;28;20400;-74
2023/07/21 06:42:25;;;;;;;5.63;3.70;;;24.90;53.40;;;;;;5073398;28;20438;-75
2023/07/21 06:44:53;;;;;;;7.50;3.70;;;25.10;53.90;;;;;;5080117;28;20846;-74
2023/07/21 06:47:21;;;;;;;5.80;4.57;;;25.30;53.60;;;;;;5085186;28;20490;-75
2023/07/21 06:49:49;;;;;;;10.40;4.30;;;25.20;52.70;;;;;;5081356;28;20446;-75
2023/07/21 06:52:18;;;;;;;5.40;4.50;;;25.20;52.60;;;;;;5075043;28;20488;-75
2023/07/21 06:54:46;;;;;;;3.60;3.30;;;25.10;52.90;;;;;;5077690;28;20455;-74
2023/07/21 06:57:14;;;;;;;3.70;3.20;;;24.90;53.00;;;;;;5082455;28;20515;-73
2023/07/21 06:59:42;;;;;;;3.00;2.57;;;25.00;52.30;;;;;;5083435;28;20439;-74
2023/07/21 07:02:10;;;;;;;3.03;2.57;;;25.00;53.50;;;;;;5081684;28;20460;-74
2023/07/21 07:04:39;;;;;;;2.17;2.00;;;25.20;52.70;;;;;;5084242;28;20514;-76
2023/07/21 07:07:08;;;;;;;3.60;2.37;;;25.40;52.30;;;;;;5081190;28;20479;-75
2023/07/21 07:09:37;;;;;;;4.60;2.40;;;25.60;51.70;;;;;;5084195;28;20437;-75
2023/07/21 07:12:08;;;;;;;2.20;2.00;;;25.70;51.20;;;;;;5076514;28;20769;-74
2023/07/21 07:14:36;;;;;;;3.20;2.40;;;25.90;50.70;;;;;;5077065;28;20542;-75
2023/07/21 07:17:04;;;;;;;2.70;2.50;;;25.80;50.30;;;;;;5077338;28;20413;-75
2023/07/21 07:19:33;;;;;;;5.33;2.90;;;25.90;50.10;;;;;;5076950;28;20454;-77
2023/07/21 07:22:00;;;;;;;6.20;4.93;;;25.90;50.00;;;;;;5084657;28;20463;-76
2023/07/21 07:24:29;;;;;;;3.87;3.57;;;25.70;49.90;;;;;;5085981;28;20400;-75
2023/07/21 07:26:58;;;;;;;5.43;3.40;;;25.60;50.20;;;;;;5072497;28;20416;-74
2023/07/21 07:29:26;;;;;;;3.97;2.60;;;25.80;50.20;;;;;;5080332;28;20438;-75
2023/07/21 07:31:55;;;;;;;2.40;2.20;;;25.90;50.10;;;;;;5078983;28;20472;-75
2023/07/21 07:34:23;;;;;;;2.87;2.60;;;25.90;50.20;;;;;;5084812;28;20479;-75
2023/07/21 07:36:51;;;;;;;6.07;2.80;;;26.00;49.90;;;;;;5086364;28;20445;-75
2023/07/21 07:39:19;;;;;;;4.00;1.93;;;26.10;49.60;;;;;;5084030;28;20440;-75
2023/07/21 07:41:49;;;;;;;7.97;2.23;;;26.20;49.30;;;;;;5076269;28;20919;-74
2023/07/21 07:44:18;;;;;;;2.57;2.00;;;26.10;48.70;;;;;;5077052;28;20478;-74
2023/07/21 07:46:46;;;;;;;2.00;1.90;;;26.10;49.40;;;;;;5072042;28;20478;-76
2023/07/21 07:49:14;;;;;;;4.63;1.90;;;26.20;48.60;;;;;;5079172;28;20483;-76
2023/07/21 07:51:42;;;;;;;2.70;2.30;;;25.90;48.30;;;;;;5080099;28;20517;-74
2023/07/21 07:54:10;;;;;;;2.27;2.10;;;26.10;49.00;;;;;;5086486;28;20470;-75
2023/07/21 07:56:38;;;;;;;5.23;3.37;;;26.20;49.00;;;;;;5083085;28;20552;-75
2023/07/21 07:59:06;;;;;;;5.30;2.90;;;26.20;48.60;;;;;;5077970;28;20438;-75
2023/07/21 08:01:36;;;;;;;3.57;2.50;;;26.40;48.60;;;;;;5078344;28;20467;-76
2023/07/21 08:04:04;;;;;;;2.50;2.30;;;26.50;48.30;;;;;;5082792;28;20909;-75
2023/07/21 08:06:32;;;;;;;2.30;2.20;;;26.30;47.60;;;;;;5079693;28;20461;-76
2023/07/21 08:09:00;;;;;;;2.60;2.20;;;26.20;47.50;;;;;;5076361;28;20430;-75
2023/07/21 08:11:28;;;;;;;5.20;2.20;;;26.40;48.30;;;;;;5078166;28;20547;-75
2023/07/21 08:13:56;;;;;;;2.60;2.00;;;26.60;47.20;;;;;;5076427;28;20479;-75
2023/07/21 08:16:24;;;;;;;2.20;1.63;;;26.60;47.80;;;;;;5074758;28;20493;-75
2023/07/21 08:18:53;;;;;;;2.13;1.90;;;26.70;47.90;;;;;;5084949;28;20523;-75
2023/07/21 08:21:22;;;;;;;1.73;1.63;;;27.00;47.00;;;;;;5079026;28;20442;-76
2023/07/21 08:23:52;;;;;;;2.00;1.90;;;27.10;46.40;;;;;;5081376;28;20407;-75
2023/07/21 08:26:21;;;;;;;2.33;2.17;;;27.30;45.60;;;;;;5081467;28;20532;-75
2023/07/21 08:28:52;;;;;;;1.80;1.70;;;27.10;46.30;;;;;;5082037;28;20535;-76
2023/07/21 08:31:20;;;;;;;1.73;1.63;;;27.30;45.50;;;;;;5079530;28;20488;-76
2023/07/21 08:33:48;;;;;;;2.50;1.60;;;27.30;45.20;;;;;;5075658;28;20554;-75
2023/07/21 08:36:18;;;;;;;5.77;2.13;;;27.30;44.70;;;;;;5078824;28;20495;-75
2023/07/21 08:38:46;;;;;;;1.73;1.63;;;27.20;44.60;;;;;;5084226;28;20451;-75
2023/07/21 08:41:15;;;;;;;1.97;1.73;;;27.20;44.50;;;;;;5075811;28;20876;-75
2023/07/21 08:43:43;;;;;;;4.00;2.20;;;27.20;43.80;;;;;;5083035;28;20536;-76
2023/07/21 08:46:12;;;;;;;2.03;1.30;;;27.20;44.20;;;;;;5079839;28;20457;-75
2023/07/21 08:48:41;;;;;;;1.80;1.70;;;27.20;43.40;;;;;;5083056;28;20419;-75
2023/07/21 08:51:09;;;;;;;1.77;1.50;;;27.40;43.50;;;;;;5086369;28;20441;-76
2023/07/21 08:53:38;;;;;;;3.57;1.83;;;27.60;42.90;;;;;;5082214;28;20424;-75
2023/07/21 08:56:06;;;;;;;2.07;1.87;;;27.60;42.90;;;;;;5082409;28;20501;-76
2023/07/21 08:58:35;;;;;;;1.90;1.77;;;27.60;42.80;;;;;;5080237;28;20499;-75
2023/07/21 09:01:05;;;;;;;3.97;1.70;;;27.60;42.70;;;;;;5081334;28;20524;-75
2023/07/21 09:03:33;;;;;;;1.50;1.40;;;27.70;42.20;;;;;;5084643;28;20426;-75
2023/07/21 09:06:01;;;;;;;3.43;1.60;;;27.70;42.70;;;;;;5079519;28;20516;-76
2023/07/21 09:08:30;;;;;;;3.30;2.47;;;27.80;41.10;;;;;;5080542;28;20444;-75
2023/07/21 09:11:00;;;;;;;2.80;2.00;;;27.70;41.10;;;;;;5072513;28;20946;-76
2023/07/21 09:13:29;;;;;;;2.93;1.70;;;27.60;41.80;;;;;;5080965;28;20408;-75
2023/07/21 09:15:57;;;;;;;6.20;1.93;;;27.70;42.70;;;;;;5085328;28;20480;-76
2023/07/21 09:18:27;;;;;;;1.53;1.43;;;27.90;42.50;;;;;;5079154;28;20429;-75
2023/07/21 09:20:55;;;;;;;1.77;1.67;;;27.90;41.30;;;;;;5084593;28;20448;-76
2023/07/21 09:23:23;;;;;;;1.93;1.70;;;28.00;41.90;;;;;;5078438;28;20514;-76
2023/07/21 09:25:53;;;;;;;1.40;1.33;;;28.20;41.70;;;;;;5078765;28;20486;-76
2023/07/21 09:28:22;;;;;;;1.63;1.40;;;28.30;40.60;;;;;;5078781;28;20491;-75
2023/07/21 09:30:52;;;;;;;1.70;1.60;;;28.40;40.20;;;;;;5071026;28;20419;-76
2023/07/21 09:33:24;;;;;;;8.63;1.40;;;28.40;40.40;;;;;;5074330;28;20438;-76
2023/07/21 09:36:04;;;;;;;1.40;1.30;;;28.20;39.40;;;;;;5077351;28;20451;-75
2023/07/21 09:38:33;;;;;;;2.00;1.80;;;28.00;40.10;;;;;;5071834;28;20533;-75
2023/07/21 09:41:02;;;;;;;1.77;1.67;;;28.00;40.40;;;;;;5078451;28;20495;-75
2023/07/21 09:43:31;;;;;;;1.63;1.50;;;28.00;39.70;;;;;;5076264;28;20456;-75
2023/07/21 09:46:01;;;;;;;3.43;1.90;;;28.40;40.60;;;;;;5078992;28;20449;-75
2023/07/21 09:48:44;;;;;;;1.87;1.77;;;28.70;38.80;;;;;;5078284;28;20443;-75
2023/07/21 09:51:13;;;;;;;7.43;1.93;;;28.80;39.80;;;;;;5075571;28;20440;-77
2023/07/21 09:53:42;;;;;;;9.20;2.70;;;29.00;39.10;;;;;;5075416;28;20502;-76
2023/07/21 09:56:11;;;;;;;1.60;1.50;;;29.10;39.80;;;;;;5070764;28;20488;-76
2023/07/21 09:58:43;;;;;;;1.73;1.63;;;29.30;39.10;;;;;;5071496;28;20532;-76
2023/07/21 10:01:10;;;;;;;1.33;1.33;;;29.30;38.50;;;;;;5075255;28;20439;-78
2023/07/21 10:03:39;;;;;;;7.97;1.67;;;29.40;39.40;;;;;;5072354;28;20887;-77
2023/07/21 10:06:07;;;;;;;2.30;2.10;;;29.70;39.40;;;;;;5070543;28;20460;-76
2023/07/21 10:08:36;;;;;;;3.03;1.40;;;29.90;39.20;;;;;;5070622;28;20579;-76
2023/07/21 10:11:05;;;;;;;1.20;1.10;;;30.00;38.40;;;;;;5074828;28;20441;-76
2023/07/21 10:13:33;;;;;;;1.30;1.20;;;29.80;38.00;;;;;;5078608;28;20533;-77
2023/07/21 10:16:08;;;;;;;1.20;1.10;;;30.00;38.60;;;;;;5078571;28;20473;-77
2023/07/21 10:18:36;;;;;;;1.20;1.10;;;29.60;37.30;;;;;;5079778;28;20538;-77
2023/07/21 10:21:05;;;;;;;2.30;1.37;;;29.60;37.20;;;;;;5080852;28;20490;-77
2023/07/21 10:23:34;;;;;;;1.90;1.80;;;29.40;37.50;;;;;;5088128;28;20528;-74
2023/07/21 10:26:03;;;;;;;1.90;1.80;;;29.20;37.40;;;;;;5094249;28;20461;-74
2023/07/21 10:28:36;;;;;;;1.80;1.70;;;29.60;38.10;;;;;;5080544;28;20427;-74
2023/07/21 10:31:36;;;;;;;1.63;1.53;;;29.50;37.40;;;;;;5075395;28;20477;-74
2023/07/21 10:34:05;;;;;;;2.13;1.90;;;29.40;37.80;;;;;;5094235;28;20506;-74
2023/07/21 10:36:43;;;;;;;3.70;2.73;;;29.80;38.00;;;;;;5085766;28;20576;-74
2023/07/21 10:39:11;;;;;;;3.17;2.37;;;29.70;37.80;;;;;;5077001;28;20419;-74
2023/07/21 10:41:39;;;;;;;2.07;1.97;;;29.80;37.10;;;;;;5077095;28;20484;-74
2023/07/21 10:44:08;;;;;;;2.50;2.30;;;29.80;37.20;;;;;;5075203;28;20448;-74
2023/07/21 10:46:37;;;;;;;5.83;1.87;;;29.80;37.00;;;;;;5073912;28;20532;-74
2023/07/21 10:49:05;;;;;;;2.97;2.10;;;29.70;36.70;;;;;;5078697;28;20453;-74
2023/07/21 10:51:33;;;;;;;1.60;1.50;;;29.90;37.50;;;;;;5094142;28;20512;-74
2023/07/21 10:54:01;;;;;;;1.70;1.40;;;30.10;37.20;;;;;;5081103;28;20521;-75
2023/07/21 10:56:29;;;;;;;3.63;3.13;;;30.20;36.10;;;;;;5077746;28;20476;-74
2023/07/21 10:58:57;;;;;;;2.50;1.60;;;30.60;36.90;;;;;;5072743;28;20469;-74
2023/07/21 11:01:26;;;;;;;1.60;1.50;;;30.50;36.20;;;;;;5073902;28;20497;-76
2023/07/21 11:03:57;;;;;;;2.80;1.30;;;30.60;34.80;;;;;;5078845;28;20429;-76
2023/07/21 11:06:25;;;;;;;1.80;1.70;;;30.70;35.40;;;;;;5078604;28;20454;-75
2023/07/21 11:08:53;;;;;;;1.23;1.23;;;31.20;35.60;;;;;;5080476;28;20468;-75
2023/07/21 11:11:22;;;;;;;1.70;1.70;;;31.50;34.70;;;;;;5077977;28;20536;-76
2023/07/21 11:13:51;;;;;;;1.30;1.20;;;31.60;35.40;;;;;;5083421;28;20448;-76
2023/07/21 11:16:18;;;;;;;3.10;2.80;;;31.50;33.90;;;;;;5077977;28;20572;-76
2023/07/21 11:18:47;;;;;;;3.77;3.57;;;31.70;34.50;;;;;;5088330;28;20437;-75
2023/07/21 11:21:16;;;;;;;2.40;2.30;;;32.10;34.30;;;;;;5089797;28;20524;-76
2023/07/21 11:23:44;;;;;;;2.10;2.00;;;32.30;33.80;;;;;;5073876;28;20438;-75
2023/07/21 11:26:12;;;;;;;2.70;2.47;;;32.70;33.70;;;;;;5073116;28;20453;-76
2023/07/21 11:28:40;;;;;;;1.83;1.83;;;33.70;32.50;;;;;;5073293;28;20491;-76
2023/07/21 11:31:12;;;;;;;1.10;1.10;;;34.60;31.40;;;;;;5076289;28;20527;-76
2023/07/21 11:33:41;;;;;;;1.73;1.63;;;34.30;29.30;;;;;;5086994;28;20432;-75
2023/07/21 11:36:17;;;;;;;1.20;1.20;;;34.30;30.00;;;;;;5092847;28;20541;-76
2023/07/21 11:39:01;;;;;;;1.37;1.00;;;34.80;30.20;;;;;;5093195;28;20432;-75
2023/07/21 11:41:45;;;;;;;1.63;1.10;;;35.80;29.20;;;;;;5082193;28;20437;-76
2023/07/21 11:44:18;;;;;;;1.07;1.07;;;36.80;28.20;;;;;;5077111;28;20536;-76
2023/07/21 11:46:54;;;;;;;0.90;0.90;;;37.90;26.60;;;;;;5072606;28;20472;-76
2023/07/21 11:49:22;;;;;;;3.87;1.10;;;38.90;27.00;;;;;;5090259;28;20482;-75
2023/07/21 11:51:52;;;;;;;1.00;1.00;;;39.10;25.40;;;;;;5085105;28;20521;-74
2023/07/21 11:54:21;;;;;;;12.10;10.80;;;37.90;25.80;;;;;;5079885;28;20473;-75
2023/07/21 11:56:49;;;;;;;2.10;2.00;;;36.90;26.60;;;;;;5092430;28;20483;-75
2023/07/21 11:59:17;;;;;;;2.03;1.30;;;36.30;27.40;;;;;;5083614;28;20473;-75
2023/07/21 12:01:45;;;;;;;1.10;1.00;;;37.10;26.90;;;;;;5074950;28;20445;-76
2023/07/21 12:04:12;;;;;;;1.83;1.07;;;37.90;25.80;;;;;;5074276;28;20442;-76
2023/07/21 12:06:41;;;;;;;2.00;1.20;;;39.20;25.90;;;;;;5082197;28;20518;-75
2023/07/21 12:09:12;;;;;;;0.97;0.97;;;38.80;24.80;;;;;;5091759;28;20512;-75
2023/07/21 12:11:40;;;;;;;1.60;1.50;;;39.00;25.10;;;;;;5091730;28;20498;-76
2023/07/21 12:14:08;;;;;;;1.00;1.00;;;39.20;24.50;;;;;;5074572;28;20465;-76
2023/07/21 12:16:36;;;;;;;1.20;1.10;;;37.80;24.70;;;;;;5075743;28;20481;-76
2023/07/21 12:19:04;;;;;;;2.23;1.30;;;36.70;25.70;;;;;;5088527;28;20822;-76
2023/07/21 12:21:33;;;;;;;1.47;1.20;;;36.70;26.80;;;;;;5091248;28;20495;-76
2023/07/21 12:24:14;;;;;;;1.73;1.63;;;36.30;26.80;;;;;;5079968;28;20498;-76
2023/07/21 12:26:42;;;;;;;1.63;1.30;;;36.50;27.80;;;;;;5077808;28;20465;-76
2023/07/21 12:29:10;;;;;;;1.10;1.10;;;36.70;27.10;;;;;;5083710;28;20444;-76
2023/07/21 12:31:38;;;;;;;1.20;1.10;;;36.70;27.20;;;;;;5078511;28;20438;-76
2023/07/21 12:34:06;;;;;;;1.73;1.23;;;37.50;27.80;;;;;;5080960;28;20473;-76
2023/07/21 12:36:34;;;;;;;1.10;1.10;;;37.90;26.50;;;;;;5078423;28;20972;-76
2023/07/21 12:39:04;;;;;;;2.07;1.13;;;38.10;26.00;;;;;;5072148;28;20438;-76
2023/07/21 12:41:33;;;;;;;1.37;1.20;;;38.40;25.90;;;;;;5075680;28;20442;-76
2023/07/21 12:44:01;;;;;;;1.83;1.77;;;38.40;25.80;;;;;;5081621;28;20469;-75
2023/07/21 12:46:29;;;;;;;1.57;1.47;;;38.20;25.60;;;;;;5074283;28;20519;-76
2023/07/21 12:48:57;;;;;;;2.40;1.10;;;38.30;26.20;;;;;;5077432;28;20472;-77
2023/07/21 12:51:25;;;;;;;1.87;1.10;;;38.10;25.80;;;;;;5080386;28;20515;-76